sensor_id;sensor_type;location;lat;lon;timestamp;temperature;humidity
34492;DHT22;20737;49.908;8.126;2023-04-25T00:00:20;8.40;99.90
34492;DHT22;20737;49.908;8.126;2023-04-25T00:02:48;8.50;99.90
34492;DHT22;20737;49.908;8.126;2023-04-25T00:05:14;8.50;99.90
34492;DHT22;20737;49.908;8.126;2023-04-25T00:07:41;8.50;99.90
34492;DHT22;20737;49.908;8.126;2023-04-25T00:10:09;8.50;99.90
34492;DHT22;20737;49.908;8.126;2023-04-25T00:12:36;8.40;99.90
34492;DHT22;20737;49.908;8.126;2023-04-25T00:15:03;8.40;99.90
34492;DHT22;20737;49.908;8.126;2023-04-25T00:17:30;8.40;99.90
34492;DHT22;20737;49.908;8.126;2023-04-25T00:19:59;8.40;99.90
34492;DHT22;20737;49.908;8.126;2023-04-25T00:22:25;8.40;99.90
34492;DHT22;20737;49.908;8.126;2023-04-25T00:24:52;8.40;99.90
34492;DHT22;20737;49.908;8.126;2023-04-25T00:27:22;8.50;99.90
34492;DHT22;20737;49.908;8.126;2023-04-25T00:29:49;8.50;99.90
34492;DHT22;20737;49.908;8.126;2023-04-25T00:32:16;8.40;99.90
34492;DHT22;20737;49.908;8.126;2023-04-25T00:34:42;8.40;99.90
34492;DHT22;20737;49.908;8.126;2023-04-25T00:37:10;8.40;99.90
34492;DHT22;20737;49.908;8.126;2023-04-25T00:39:38;8.40;99.90
34492;DHT22;20737;49.908;8.126;2023-04-25T00:42:05;8.30;99.90
34492;DHT22;20737;49.908;8.126;2023-04-25T00:44:32;8.30;99.90
34492;DHT22;20737;49.908;8.126;2023-04-25T00:47:02;8.30;99.90
34492;DHT22;20737;49.908;8.126;2023-04-25T00:49:28;8.40;99.90
34492;DHT22;20737;49.908;8.126;2023-04-25T00:51:56;8.40;99.90
34492;DHT22;20737;49.908;8.126;2023-04-25T00:54:24;8.40;99.90
34492;DHT22;20737;49.908;8.126;2023-04-25T00:56:51;8.40;99.90
34492;DHT22;20737;49.908;8.126;2023-04-25T00:59:19;8.40;99.90
34492;DHT22;20737;49.908;8.126;2023-04-25T01:01:46;8.40;99.90
34492;DHT22;20737;49.908;8.126;2023-04-25T01:04:13;8.50;99.90
34492;DHT22;20737;49.908;8.126;2023-04-25T01:06:40;8.50;99.90
34492;DHT22;20737;49.908;8.126;2023-04-25T01:09:07;8.50;99.90
34492;DHT22;20737;49.908;8.126;2023-04-25T01:11:35;8.50;99.90
34492;DHT22;20737;49.908;8.126;2023-04-25T01:14:02;8.50;99.90
34492;DHT22;20737;49.908;8.126;2023-04-25T01:16:29;8.40;99.90
34492;DHT22;20737;49.908;8.126;2023-04-25T01:18:56;8.40;99.90
34492;DHT22;20737;49.908;8.126;2023-04-25T01:21:24;8.40;99.90
34492;DHT22;20737;49.908;8.126;2023-04-25T01:23:54;8.30;99.90
34492;DHT22;20737;49.908;8.126;2023-04-25T01:26:21;8.30;99.90
34492;DHT22;20737;49.908;8.126;2023-04-25T01:28:49;8.30;99.90
34492;DHT22;20737;49.908;8.126;2023-04-25T01:31:17;8.30;99.90
34492;DHT22;20737;49.908;8.126;2023-04-25T01:33:45;8.40;99.90
34492;DHT22;20737;49.908;8.126;2023-04-25T01:36:12;8.40;99.90
34492;DHT22;20737;49.908;8.126;2023-04-25T01:38:41;8.30;99.90
34492;DHT22;20737;49.908;8.126;2023-04-25T01:41:09;8.30;99.90
34492;DHT22;20737;49.908;8.126;2023-04-25T01:43:36;8.40;99.90
34492;DHT22;20737;49.908;8.126;2023-04-25T01:46:03;8.40;99.90
34492;DHT22;20737;49.908;8.126;2023-04-25T01:48:30;8.40;99.90
34492;DHT22;20737;49.908;8.126;2023-04-25T01:50:57;8.40;99.90
34492;DHT22;20737;49.908;8.126;2023-04-25T01:53:24;8.40;99.90
34492;DHT22;20737;49.908;8.126;2023-04-25T01:55:52;8.40;99.90
34492;DHT22;20737;49.908;8.126;2023-04-25T01:58:19;8.40;99.90
34492;DHT22;20737;49.908;8.126;2023-04-25T02:00:46;8.30;99.90
34492;DHT22;20737;49.908;8.126;2023-04-25T02:03:13;8.30;99.90
34492;DHT22;20737;49.908;8.126;2023-04-25T02:05:39;8.40;99.90
34492;DHT22;20737;49.908;8.126;2023-04-25T02:08:07;8.30;99.90
34492;DHT22;20737;49.908;8.126;2023-04-25T02:10:35;8.30;99.90
34492;DHT22;20737;49.908;8.126;2023-04-25T02:13:04;8.30;99.90
34492;DHT22;20737;49.908;8.126;2023-04-25T02:15:31;8.30;99.90
34492;DHT22;20737;49.908;8.126;2023-04-25T02:17:57;8.30;99.90
34492;DHT22;20737;49.908;8.126;2023-04-25T02:20:26;8.30;99.90
34492;DHT22;20737;49.908;8.126;2023-04-25T02:22:53;8.30;99.90
34492;DHT22;20737;49.908;8.126;2023-04-25T02:25:19;8.30;99.90
34492;DHT22;20737;49.908;8.126;2023-04-25T02:27:46;8.30;99.90
34492;DHT22;20737;49.908;8.126;2023-04-25T02:30:14;8.30;99.90
34492;DHT22;20737;49.908;8.126;2023-04-25T02:32:43;8.20;99.90
34492;DHT22;20737;49.908;8.126;2023-04-25T02:35:10;8.30;99.90
34492;DHT22;20737;49.908;8.126;2023-04-25T02:37:38;8.30;99.90
34492;DHT22;20737;49.908;8.126;2023-04-25T02:40:06;8.20;99.90
34492;DHT22;20737;49.908;8.126;2023-04-25T02:42:33;8.20;99.90
34492;DHT22;20737;49.908;8.126;2023-04-25T02:45:00;8.20;99.90
34492;DHT22;20737;49.908;8.126;2023-04-25T02:47:29;8.10;99.90
34492;DHT22;20737;49.908;8.126;2023-04-25T02:49:55;8.10;99.90
34492;DHT22;20737;49.908;8.126;2023-04-25T02:52:22;8.10;99.90
34492;DHT22;20737;49.908;8.126;2023-04-25T02:54:49;8.10;99.90
34492;DHT22;20737;49.908;8.126;2023-04-25T02:57:16;8.10;99.90
34492;DHT22;20737;49.908;8.126;2023-04-25T02:59:42;8.10;99.90
34492;DHT22;20737;49.908;8.126;2023-04-25T03:02:09;8.10;99.90
34492;DHT22;20737;49.908;8.126;2023-04-25T03:04:37;8.10;99.90
34492;DHT22;20737;49.908;8.126;2023-04-25T03:07:04;8.10;99.90
34492;DHT22;20737;49.908;8.126;2023-04-25T03:09:31;8.10;99.90
34492;DHT22;20737;49.908;8.126;2023-04-25T03:11:58;8.10;99.90
34492;DHT22;20737;49.908;8.126;2023-04-25T03:14:25;8.10;99.90
34492;DHT22;20737;49.908;8.126;2023-04-25T03:16:52;8.10;99.90
34492;DHT22;20737;49.908;8.126;2023-04-25T03:19:19;8.10;99.90
34492;DHT22;20737;49.908;8.126;2023-04-25T03:21:47;8.20;99.90
34492;DHT22;20737;49.908;8.126;2023-04-25T03:24:14;8.20;99.90
34492;DHT22;20737;49.908;8.126;2023-04-25T03:26:40;8.20;99.90
34492;DHT22;20737;49.908;8.126;2023-04-25T03:29:07;8.20;99.90
34492;DHT22;20737;49.908;8.126;2023-04-25T03:31:34;8.20;99.90
34492;DHT22;20737;49.908;8.126;2023-04-25T03:34:01;8.20;99.90
34492;DHT22;20737;49.908;8.126;2023-04-25T03:36:27;8.20;99.90
34492;DHT22;20737;49.908;8.126;2023-04-25T03:38:55;8.20;99.90
34492;DHT22;20737;49.908;8.126;2023-04-25T03:41:22;8.10;99.90
34492;DHT22;20737;49.908;8.126;2023-04-25T03:43:49;8.20;99.90
34492;DHT22;20737;49.908;8.126;2023-04-25T03:46:15;8.20;99.90
34492;DHT22;20737;49.908;8.126;2023-04-25T03:48:42;8.20;99.90
34492;DHT22;20737;49.908;8.126;2023-04-25T03:51:09;8.20;99.90
34492;DHT22;20737;49.908;8.126;2023-04-25T03:53:35;8.10;99.90
34492;DHT22;20737;49.908;8.126;2023-04-25T03:56:04;8.10;99.90
34492;DHT22;20737;49.908;8.126;2023-04-25T03:58:31;8.00;99.90
34492;DHT22;20737;49.908;8.126;2023-04-25T04:00:58;8.10;99.90
34492;DHT22;20737;49.908;8.126;2023-04-25T04:03:24;8.00;99.90
34492;DHT22;20737;49.908;8.126;2023-04-25T04:05:51;8.00;99.90
34492;DHT22;20737;49.908;8.126;2023-04-25T04:08:18;8.00;99.90
34492;DHT22;20737;49.908;8.126;2023-04-25T04:10:45;8.00;99.90
34492;DHT22;20737;49.908;8.126;2023-04-25T04:13:14;7.90;99.90
34492;DHT22;20737;49.908;8.126;2023-04-25T04:15:41;7.90;99.90
34492;DHT22;20737;49.908;8.126;2023-04-25T04:18:07;7.80;99.90
34492;DHT22;20737;49.908;8.126;2023-04-25T04:20:34;7.80;99.90
34492;DHT22;20737;49.908;8.126;2023-04-25T04:23:01;7.90;99.90
34492;DHT22;20737;49.908;8.126;2023-04-25T04:25:28;7.90;99.90
34492;DHT22;20737;49.908;8.126;2023-04-25T04:27:55;7.90;99.90
34492;DHT22;20737;49.908;8.126;2023-04-25T04:30:24;7.90;99.90
34492;DHT22;20737;49.908;8.126;2023-04-25T04:32:51;7.90;99.90
34492;DHT22;20737;49.908;8.126;2023-04-25T04:35:18;7.90;99.90
34492;DHT22;20737;49.908;8.126;2023-04-25T04:37:45;7.90;99.90
34492;DHT22;20737;49.908;8.126;2023-04-25T04:40:11;7.80;99.90
34492;DHT22;20737;49.908;8.126;2023-04-25T04:42:40;7.70;99.90
34492;DHT22;20737;49.908;8.126;2023-04-25T04:45:08;7.60;99.90
34492;DHT22;20737;49.908;8.126;2023-04-25T04:47:36;7.60;99.90
34492;DHT22;20737;49.908;8.126;2023-04-25T04:50:05;7.50;99.90
34492;DHT22;20737;49.908;8.126;2023-04-25T04:52:32;7.50;99.90
34492;DHT22;20737;49.908;8.126;2023-04-25T04:54:59;7.40;99.90
34492;DHT22;20737;49.908;8.126;2023-04-25T04:57:27;7.40;99.90
34492;DHT22;20737;49.908;8.126;2023-04-25T04:59:54;7.40;99.90
34492;DHT22;20737;49.908;8.126;2023-04-25T05:02:21;7.50;99.90
34492;DHT22;20737;49.908;8.126;2023-04-25T05:04:49;7.50;99.90
34492;DHT22;20737;49.908;8.126;2023-04-25T05:07:17;7.70;99.90
34492;DHT22;20737;49.908;8.126;2023-04-25T05:09:43;7.80;99.90
34492;DHT22;20737;49.908;8.126;2023-04-25T05:12:10;8.00;99.90
34492;DHT22;20737;49.908;8.126;2023-04-25T05:14:37;8.20;99.90
34492;DHT22;20737;49.908;8.126;2023-04-25T05:17:04;8.40;99.90
34492;DHT22;20737;49.908;8.126;2023-04-25T05:19:33;8.60;99.90
34492;DHT22;20737;49.908;8.126;2023-04-25T05:22:01;8.70;99.90
34492;DHT22;20737;49.908;8.126;2023-04-25T05:24:28;8.80;99.90
34492;DHT22;20737;49.908;8.126;2023-04-25T05:26:56;8.80;99.90
34492;DHT22;20737;49.908;8.126;2023-04-25T05:29:22;8.90;99.90
34492;DHT22;20737;49.908;8.126;2023-04-25T05:31:49;8.90;99.90
34492;DHT22;20737;49.908;8.126;2023-04-25T05:34:16;8.70;99.90
34492;DHT22;20737;49.908;8.126;2023-04-25T05:36:43;8.70;99.90
34492;DHT22;20737;49.908;8.126;2023-04-25T05:39:11;8.60;99.90
34492;DHT22;20737;49.908;8.126;2023-04-25T05:41:37;8.50;99.90
34492;DHT22;20737;49.908;8.126;2023-04-25T05:44:05;8.50;99.90
34492;DHT22;20737;49.908;8.126;2023-04-25T05:46:31;8.40;99.90
34492;DHT22;20737;49.908;8.126;2023-04-25T05:48:58;8.40;99.90
34492;DHT22;20737;49.908;8.126;2023-04-25T05:51:25;8.50;99.90
34492;DHT22;20737;49.908;8.126;2023-04-25T05:53:52;8.50;99.90
34492;DHT22;20737;49.908;8.126;2023-04-25T05:56:21;8.50;99.90
34492;DHT22;20737;49.908;8.126;2023-04-25T05:58:47;8.50;99.90
34492;DHT22;20737;49.908;8.126;2023-04-25T06:01:14;8.50;99.90
34492;DHT22;20737;49.908;8.126;2023-04-25T06:03:41;8.60;99.90
34492;DHT22;20737;49.908;8.126;2023-04-25T06:06:08;8.70;99.90
34492;DHT22;20737;49.908;8.126;2023-04-25T06:08:35;8.90;99.90
34492;DHT22;20737;49.908;8.126;2023-04-25T06:11:03;8.90;99.90
34492;DHT22;20737;49.908;8.126;2023-04-25T06:13:31;9.10;99.90
34492;DHT22;20737;49.908;8.126;2023-04-25T06:15:58;9.30;99.90
34492;DHT22;20737;49.908;8.126;2023-04-25T06:18:25;9.20;99.90
34492;DHT22;20737;49.908;8.126;2023-04-25T06:20:51;9.20;99.90
34492;DHT22;20737;49.908;8.126;2023-04-25T06:23:18;9.10;99.90
34492;DHT22;20737;49.908;8.126;2023-04-25T06:25:45;9.00;99.90
34492;DHT22;20737;49.908;8.126;2023-04-25T06:28:12;9.00;99.90
34492;DHT22;20737;49.908;8.126;2023-04-25T06:30:40;8.90;99.90
34492;DHT22;20737;49.908;8.126;2023-04-25T06:33:07;8.80;99.90
34492;DHT22;20737;49.908;8.126;2023-04-25T06:35:34;8.90;99.90
34492;DHT22;20737;49.908;8.126;2023-04-25T06:38:01;9.00;99.90
34492;DHT22;20737;49.908;8.126;2023-04-25T06:40:28;9.00;99.90
34492;DHT22;20737;49.908;8.126;2023-04-25T06:42:54;8.90;99.90
34492;DHT22;20737;49.908;8.126;2023-04-25T06:45:21;9.10;99.90
34492;DHT22;20737;49.908;8.126;2023-04-25T06:47:49;9.10;99.90
34492;DHT22;20737;49.908;8.126;2023-04-25T06:50:16;9.20;99.90
34492;DHT22;20737;49.908;8.126;2023-04-25T06:52:42;9.30;99.90
34492;DHT22;20737;49.908;8.126;2023-04-25T06:55:09;9.60;99.90
34492;DHT22;20737;49.908;8.126;2023-04-25T06:57:36;9.70;99.90
34492;DHT22;20737;49.908;8.126;2023-04-25T07:00:04;9.60;99.90
34492;DHT22;20737;49.908;8.126;2023-04-25T07:02:34;9.50;99.90
34492;DHT22;20737;49.908;8.126;2023-04-25T07:05:02;9.30;99.90
34492;DHT22;20737;49.908;8.126;2023-04-25T07:07:29;9.20;99.90
34492;DHT22;20737;49.908;8.126;2023-04-25T07:09:56;9.00;99.90
34492;DHT22;20737;49.908;8.126;2023-04-25T07:12:23;9.00;99.90
34492;DHT22;20737;49.908;8.126;2023-04-25T07:14:50;9.00;99.90
34492;DHT22;20737;49.908;8.126;2023-04-25T07:17:16;9.10;99.90
34492;DHT22;20737;49.908;8.126;2023-04-25T07:19:44;9.20;99.90
34492;DHT22;20737;49.908;8.126;2023-04-25T07:22:12;9.00;99.90
34492;DHT22;20737;49.908;8.126;2023-04-25T07:24:39;8.90;99.90
34492;DHT22;20737;49.908;8.126;2023-04-25T07:27:06;9.00;99.90
34492;DHT22;20737;49.908;8.126;2023-04-25T07:29:33;9.10;99.90
34492;DHT22;20737;49.908;8.126;2023-04-25T07:32:02;9.20;99.90
34492;DHT22;20737;49.908;8.126;2023-04-25T07:34:29;9.20;99.90
34492;DHT22;20737;49.908;8.126;2023-04-25T07:36:57;9.40;99.90
34492;DHT22;20737;49.908;8.126;2023-04-25T07:39:26;9.60;99.90
34492;DHT22;20737;49.908;8.126;2023-04-25T07:41:53;9.90;99.90
34492;DHT22;20737;49.908;8.126;2023-04-25T07:44:20;10.00;99.90
34492;DHT22;20737;49.908;8.126;2023-04-25T07:46:46;10.40;99.90
34492;DHT22;20737;49.908;8.126;2023-04-25T07:49:13;10.80;99.90
34492;DHT22;20737;49.908;8.126;2023-04-25T07:51:40;10.90;99.90
34492;DHT22;20737;49.908;8.126;2023-04-25T07:54:08;11.00;99.90
34492;DHT22;20737;49.908;8.126;2023-04-25T07:56:36;11.30;99.90
34492;DHT22;20737;49.908;8.126;2023-04-25T07:59:03;11.60;99.90
34492;DHT22;20737;49.908;8.126;2023-04-25T08:01:34;12.10;99.90
34492;DHT22;20737;49.908;8.126;2023-04-25T08:04:00;12.80;99.90
34492;DHT22;20737;49.908;8.126;2023-04-25T08:06:27;13.70;99.90
34492;DHT22;20737;49.908;8.126;2023-04-25T08:08:54;14.50;99.90
34492;DHT22;20737;49.908;8.126;2023-04-25T08:11:21;14.90;99.90
34492;DHT22;20737;49.908;8.126;2023-04-25T08:13:49;15.20;99.90
34492;DHT22;20737;49.908;8.126;2023-04-25T08:16:16;15.20;99.90
34492;DHT22;20737;49.908;8.126;2023-04-25T08:18:42;14.70;99.90
34492;DHT22;20737;49.908;8.126;2023-04-25T08:21:09;15.50;99.90
34492;DHT22;20737;49.908;8.126;2023-04-25T08:23:36;15.30;99.90
34492;DHT22;20737;49.908;8.126;2023-04-25T08:26:03;14.70;99.90
34492;DHT22;20737;49.908;8.126;2023-04-25T08:28:31;14.70;99.90
34492;DHT22;20737;49.908;8.126;2023-04-25T08:30:59;15.10;99.90
34492;DHT22;20737;49.908;8.126;2023-04-25T08:33:26;14.70;99.90
34492;DHT22;20737;49.908;8.126;2023-04-25T08:35:52;15.20;99.90
34492;DHT22;20737;49.908;8.126;2023-04-25T08:38:19;16.40;99.90
34492;DHT22;20737;49.908;8.126;2023-04-25T08:40:49;18.20;96.80
34492;DHT22;20737;49.908;8.126;2023-04-25T08:43:18;18.70;91.10
34492;DHT22;20737;49.908;8.126;2023-04-25T08:45:46;18.30;91.20
34492;DHT22;20737;49.908;8.126;2023-04-25T08:48:15;17.30;92.50
34492;DHT22;20737;49.908;8.126;2023-04-25T08:50:46;17.00;94.00
34492;DHT22;20737;49.908;8.126;2023-04-25T08:53:16;17.10;94.20
34492;DHT22;20737;49.908;8.126;2023-04-25T08:55:46;18.30;92.70
34492;DHT22;20737;49.908;8.126;2023-04-25T08:58:13;20.20;90.00
34492;DHT22;20737;49.908;8.126;2023-04-25T09:00:40;19.20;81.40
34492;DHT22;20737;49.908;8.126;2023-04-25T09:03:07;18.80;86.40
34492;DHT22;20737;49.908;8.126;2023-04-25T09:05:39;17.80;87.20
34492;DHT22;20737;49.908;8.126;2023-04-25T09:08:06;17.10;91.00
34492;DHT22;20737;49.908;8.126;2023-04-25T09:10:33;16.60;92.50
34492;DHT22;20737;49.908;8.126;2023-04-25T09:13:07;16.40;94.40
34492;DHT22;20737;49.908;8.126;2023-04-25T09:15:47;16.50;93.70
34492;DHT22;20737;49.908;8.126;2023-04-25T09:18:22;16.80;91.80
34492;DHT22;20737;49.908;8.126;2023-04-25T09:20:51;17.30;94.60
34492;DHT22;20737;49.908;8.126;2023-04-25T09:23:19;17.60;92.40
34492;DHT22;20737;49.908;8.126;2023-04-25T09:25:47;16.80;90.80
34492;DHT22;20737;49.908;8.126;2023-04-25T09:28:15;15.90;94.10
34492;DHT22;20737;49.908;8.126;2023-04-25T09:30:42;17.10;92.00
34492;DHT22;20737;49.908;8.126;2023-04-25T09:33:10;16.80;90.00
34492;DHT22;20737;49.908;8.126;2023-04-25T09:35:38;16.90;91.30
34492;DHT22;20737;49.908;8.126;2023-04-25T09:38:11;16.80;90.30
34492;DHT22;20737;49.908;8.126;2023-04-25T09:40:42;16.30;92.80
34492;DHT22;20737;49.908;8.126;2023-04-25T09:43:10;15.30;93.10
34492;DHT22;20737;49.908;8.126;2023-04-25T09:45:43;15.40;95.60
34492;DHT22;20737;49.908;8.126;2023-04-25T09:48:11;16.10;95.10
34492;DHT22;20737;49.908;8.126;2023-04-25T09:50:38;15.90;93.80
34492;DHT22;20737;49.908;8.126;2023-04-25T09:53:06;15.90;93.40
34492;DHT22;20737;49.908;8.126;2023-04-25T09:55:34;16.20;92.20
34492;DHT22;20737;49.908;8.126;2023-04-25T09:58:04;16.10;93.70
34492;DHT22;20737;49.908;8.126;2023-04-25T10:00:32;15.60;93.10
34492;DHT22;20737;49.908;8.126;2023-04-25T10:03:01;15.20;92.10
34492;DHT22;20737;49.908;8.126;2023-04-25T10:05:32;16.10;91.70
34492;DHT22;20737;49.908;8.126;2023-04-25T10:08:02;16.50;91.70
34492;DHT22;20737;49.908;8.126;2023-04-25T10:10:30;16.00;93.20
34492;DHT22;20737;49.908;8.126;2023-04-25T10:13:04;15.10;94.00
34492;DHT22;20737;49.908;8.126;2023-04-25T10:15:34;14.60;95.50
34492;DHT22;20737;49.908;8.126;2023-04-25T10:18:01;14.30;96.60
34492;DHT22;20737;49.908;8.126;2023-04-25T10:20:29;13.80;98.10
34492;DHT22;20737;49.908;8.126;2023-04-25T10:23:01;13.70;97.80
34492;DHT22;20737;49.908;8.126;2023-04-25T10:25:29;13.70;98.90
34492;DHT22;20737;49.908;8.126;2023-04-25T10:27:56;15.10;95.70
34492;DHT22;20737;49.908;8.126;2023-04-25T10:30:24;16.90;91.30
34492;DHT22;20737;49.908;8.126;2023-04-25T10:32:54;17.80;87.90
34492;DHT22;20737;49.908;8.126;2023-04-25T10:35:25;20.00;86.80
34492;DHT22;20737;49.908;8.126;2023-04-25T10:37:59;20.90;70.40
34492;DHT22;20737;49.908;8.126;2023-04-25T10:40:27;21.70;70.70
34492;DHT22;20737;49.908;8.126;2023-04-25T10:42:54;22.70;70.20
34492;DHT22;20737;49.908;8.126;2023-04-25T10:45:21;21.40;64.50
34492;DHT22;20737;49.908;8.126;2023-04-25T10:47:50;19.40;70.40
34492;DHT22;20737;49.908;8.126;2023-04-25T10:50:17;18.30;77.70
34492;DHT22;20737;49.908;8.126;2023-04-25T10:52:44;17.10;81.40
34492;DHT22;20737;49.908;8.126;2023-04-25T10:55:11;16.00;83.70
34492;DHT22;20737;49.908;8.126;2023-04-25T10:57:40;15.50;90.60
34492;DHT22;20737;49.908;8.126;2023-04-25T11:00:09;14.90;91.50
34492;DHT22;20737;49.908;8.126;2023-04-25T11:02:44;14.80;91.30
34492;DHT22;20737;49.908;8.126;2023-04-25T11:05:20;14.60;92.70
34492;DHT22;20737;49.908;8.126;2023-04-25T11:07:50;14.60;92.80
34492;DHT22;20737;49.908;8.126;2023-04-25T11:10:18;15.20;94.20
34492;DHT22;20737;49.908;8.126;2023-04-25T11:12:45;15.00;90.90
34492;DHT22;20737;49.908;8.126;2023-04-25T11:15:12;14.60;92.00
34492;DHT22;20737;49.908;8.126;2023-04-25T11:17:42;14.20;92.40
34492;DHT22;20737;49.908;8.126;2023-04-25T11:20:11;13.90;92.80
34492;DHT22;20737;49.908;8.126;2023-04-25T11:22:41;14.00;93.00
34492;DHT22;20737;49.908;8.126;2023-04-25T11:25:09;14.80;94.00
34492;DHT22;20737;49.908;8.126;2023-04-25T11:27:38;15.40;89.20
34492;DHT22;20737;49.908;8.126;2023-04-25T11:30:13;15.10;91.20
34492;DHT22;20737;49.908;8.126;2023-04-25T11:32:40;14.60;91.20
34492;DHT22;20737;49.908;8.126;2023-04-25T11:35:08;13.80;92.40
34492;DHT22;20737;49.908;8.126;2023-04-25T11:37:35;13.30;93.30
34492;DHT22;20737;49.908;8.126;2023-04-25T11:40:04;12.70;94.40
34492;DHT22;20737;49.908;8.126;2023-04-25T11:42:33;12.40;96.70
34492;DHT22;20737;49.908;8.126;2023-04-25T11:45:00;12.40;98.60
34492;DHT22;20737;49.908;8.126;2023-04-25T11:47:30;12.30;98.50
34492;DHT22;20737;49.908;8.126;2023-04-25T11:49:58;12.30;98.90
34492;DHT22;20737;49.908;8.126;2023-04-25T11:52:36;12.40;98.70
34492;DHT22;20737;49.908;8.126;2023-04-25T11:55:06;12.20;97.60
34492;DHT22;20737;49.908;8.126;2023-04-25T11:57:37;12.10;98.40
34492;DHT22;20737;49.908;8.126;2023-04-25T12:00:07;12.10;99.00
34492;DHT22;20737;49.908;8.126;2023-04-25T12:02:36;12.10;99.10
34492;DHT22;20737;49.908;8.126;2023-04-25T12:05:06;12.60;98.10
34492;DHT22;20737;49.908;8.126;2023-04-25T12:07:34;14.30;95.90
34492;DHT22;20737;49.908;8.126;2023-04-25T12:10:06;16.70;92.30
34492;DHT22;20737;49.908;8.126;2023-04-25T12:12:34;17.90;79.90
34492;DHT22;20737;49.908;8.126;2023-04-25T12:15:09;17.10;81.50
34492;DHT22;20737;49.908;8.126;2023-04-25T12:17:36;16.20;82.50
34492;DHT22;20737;49.908;8.126;2023-04-25T12:20:07;15.40;86.90
34492;DHT22;20737;49.908;8.126;2023-04-25T12:22:37;14.90;88.70
34492;DHT22;20737;49.908;8.126;2023-04-25T12:25:06;14.80;91.20
34492;DHT22;20737;49.908;8.126;2023-04-25T12:27:33;14.60;90.80
34492;DHT22;20737;49.908;8.126;2023-04-25T12:30:01;13.80;91.90
34492;DHT22;20737;49.908;8.126;2023-04-25T12:32:28;13.00;94.00
34492;DHT22;20737;49.908;8.126;2023-04-25T12:34:56;12.60;95.20
34492;DHT22;20737;49.908;8.126;2023-04-25T12:37:23;12.70;96.80
34492;DHT22;20737;49.908;8.126;2023-04-25T12:39:49;13.00;97.40
34492;DHT22;20737;49.908;8.126;2023-04-25T12:42:18;13.30;96.20
34492;DHT22;20737;49.908;8.126;2023-04-25T12:44:44;13.60;95.20
34492;DHT22;20737;49.908;8.126;2023-04-25T12:47:11;14.30;93.80
34492;DHT22;20737;49.908;8.126;2023-04-25T12:49:38;14.80;91.70
34492;DHT22;20737;49.908;8.126;2023-04-25T12:52:05;15.40;88.80
34492;DHT22;20737;49.908;8.126;2023-04-25T12:54:32;15.40;85.10
34492;DHT22;20737;49.908;8.126;2023-04-25T12:56:58;16.30;83.70
34492;DHT22;20737;49.908;8.126;2023-04-25T12:59:28;17.40;80.90
34492;DHT22;20737;49.908;8.126;2023-04-25T13:01:56;17.40;76.70
34492;DHT22;20737;49.908;8.126;2023-04-25T13:04:22;16.80;78.70
34492;DHT22;20737;49.908;8.126;2023-04-25T13:06:49;16.30;79.10
34492;DHT22;20737;49.908;8.126;2023-04-25T13:09:16;17.60;78.80
34492;DHT22;20737;49.908;8.126;2023-04-25T13:11:42;19.70;72.50
34492;DHT22;20737;49.908;8.126;2023-04-25T13:14:09;19.40;69.30
34492;DHT22;20737;49.908;8.126;2023-04-25T13:16:37;18.70;69.60
34492;DHT22;20737;49.908;8.126;2023-04-25T13:19:04;17.60;69.70
34492;DHT22;20737;49.908;8.126;2023-04-25T13:21:33;16.80;74.00
34492;DHT22;20737;49.908;8.126;2023-04-25T13:23:59;16.10;74.50
34492;DHT22;20737;49.908;8.126;2023-04-25T13:26:26;15.50;78.60
34492;DHT22;20737;49.908;8.126;2023-04-25T13:28:53;15.20;79.20
34492;DHT22;20737;49.908;8.126;2023-04-25T13:31:20;15.30;81.10
34492;DHT22;20737;49.908;8.126;2023-04-25T13:33:48;15.00;77.40
34492;DHT22;20737;49.908;8.126;2023-04-25T13:36:14;14.70;78.30
34492;DHT22;20737;49.908;8.126;2023-04-25T13:38:42;14.60;80.40
34492;DHT22;20737;49.908;8.126;2023-04-25T13:41:10;14.80;82.60
34492;DHT22;20737;49.908;8.126;2023-04-25T13:43:41;15.10;86.80
34492;DHT22;20737;49.908;8.126;2023-04-25T13:46:08;15.30;86.20
34492;DHT22;20737;49.908;8.126;2023-04-25T13:48:35;15.40;86.00
34492;DHT22;20737;49.908;8.126;2023-04-25T13:51:03;15.20;82.00
34492;DHT22;20737;49.908;8.126;2023-04-25T13:53:30;14.70;79.80
34492;DHT22;20737;49.908;8.126;2023-04-25T13:55:57;14.30;85.00
34492;DHT22;20737;49.908;8.126;2023-04-25T13:58:23;13.80;81.90
34492;DHT22;20737;49.908;8.126;2023-04-25T14:00:50;13.30;82.10
34492;DHT22;20737;49.908;8.126;2023-04-25T14:03:19;12.90;85.40
34492;DHT22;20737;49.908;8.126;2023-04-25T14:05:45;12.70;88.00
34492;DHT22;20737;49.908;8.126;2023-04-25T14:08:13;12.60;88.50
34492;DHT22;20737;49.908;8.126;2023-04-25T14:10:40;12.40;87.50
34492;DHT22;20737;49.908;8.126;2023-04-25T14:13:07;12.20;88.40
34492;DHT22;20737;49.908;8.126;2023-04-25T14:15:34;12.20;90.10
34492;DHT22;20737;49.908;8.126;2023-04-25T14:18:01;12.40;90.50
34492;DHT22;20737;49.908;8.126;2023-04-25T14:20:28;12.50;86.20
34492;DHT22;20737;49.908;8.126;2023-04-25T14:22:55;12.40;83.30
34492;DHT22;20737;49.908;8.126;2023-04-25T14:25:24;12.30;85.10
34492;DHT22;20737;49.908;8.126;2023-04-25T14:27:51;12.40;84.70
34492;DHT22;20737;49.908;8.126;2023-04-25T14:30:19;12.60;86.20
34492;DHT22;20737;49.908;8.126;2023-04-25T14:32:47;13.00;87.50
34492;DHT22;20737;49.908;8.126;2023-04-25T14:35:14;13.20;83.40
34492;DHT22;20737;49.908;8.126;2023-04-25T14:37:41;13.30;83.70
34492;DHT22;20737;49.908;8.126;2023-04-25T14:40:08;13.30;84.70
34492;DHT22;20737;49.908;8.126;2023-04-25T14:42:39;13.70;84.60
34492;DHT22;20737;49.908;8.126;2023-04-25T14:45:07;14.10;81.60
34492;DHT22;20737;49.908;8.126;2023-04-25T14:47:34;14.70;83.10
34492;DHT22;20737;49.908;8.126;2023-04-25T14:50:01;15.20;80.90
34492;DHT22;20737;49.908;8.126;2023-04-25T14:52:28;14.70;79.80
34492;DHT22;20737;49.908;8.126;2023-04-25T14:54:55;14.40;82.60
34492;DHT22;20737;49.908;8.126;2023-04-25T14:57:21;14.20;82.70
34492;DHT22;20737;49.908;8.126;2023-04-25T14:59:49;13.70;84.80
34492;DHT22;20737;49.908;8.126;2023-04-25T15:02:16;13.70;86.90
34492;DHT22;20737;49.908;8.126;2023-04-25T15:04:43;13.50;83.30
34492;DHT22;20737;49.908;8.126;2023-04-25T15:07:10;13.30;84.50
34492;DHT22;20737;49.908;8.126;2023-04-25T15:09:37;13.10;84.60
34492;DHT22;20737;49.908;8.126;2023-04-25T15:12:04;12.90;84.80
34492;DHT22;20737;49.908;8.126;2023-04-25T15:14:30;12.70;87.70
34492;DHT22;20737;49.908;8.126;2023-04-25T15:17:00;12.70;90.00
34492;DHT22;20737;49.908;8.126;2023-04-25T15:19:30;13.00;89.20
34492;DHT22;20737;49.908;8.126;2023-04-25T15:21:57;13.20;89.90
34492;DHT22;20737;49.908;8.126;2023-04-25T15:24:25;13.40;87.50
34492;DHT22;20737;49.908;8.126;2023-04-25T15:26:52;13.60;87.00
34492;DHT22;20737;49.908;8.126;2023-04-25T15:29:19;13.60;84.90
34492;DHT22;20737;49.908;8.126;2023-04-25T15:31:45;13.40;84.60
34492;DHT22;20737;49.908;8.126;2023-04-25T15:34:14;13.40;88.30
34492;DHT22;20737;49.908;8.126;2023-04-25T15:36:40;13.60;86.40
34492;DHT22;20737;49.908;8.126;2023-04-25T15:39:07;13.90;85.10